Great Bend, North Dakota
Current Conditions -  °F | °C
As of 11:15 AM on Saturday 25 Oct 2014 (Local Time) from KBWP Reporting Station
Clear Clear  
Wind Chill: 54°   Ceiling: Unl
Heat Index: 54°   Visibility: 10mi
Dew Point: 30°   Wind: 13mph
Humidity: 41%   Direction: 320°NW
Pressure: 30.13"   Gusts: 17mph
Location:  46.15°N, 96.8°W
Report Text: KBWP 251615Z AUTO 32011G15KT 10SM CLR 12/M01 A3013 RMK AO1
Loading
Personal Weather Stations






























Interactive Weather Map
Tropical Storm Tracking
New forecast layout! Learn more

10-Day Weather Forecast

Advertisements
Track Severe Weather on mobile